Time;durP1;ratioP1;P1;durP2;ratioP2;P2;SDS_P1;SDS_P2;PMS_P1;PMS_P2;Temp;Humidity;BMP_temperature;BMP_pressure;BME280_temperature;BME280_humidity;BME280_pressure;Samples;Min_cycle;Max_cycle;Signal;HPM_P1;HPM_P2
2023/05/01 00:01:31;;;;;;;;;;;19.60;44.60;;;;;;4993845;28;19940;-54
2023/05/01 00:03:57;;;;;;;;;;;19.60;44.50;;;;;;5004496;28;20263;-55
2023/05/01 00:06:22;;;;;;;;;;;19.60;44.70;;;;;;4995972;28;20365;-55
2023/05/01 00:08:47;;;;;;;;;;;19.60;44.50;;;;;;5002305;28;19918;-54
2023/05/01 00:11:13;;;;;;;;;;;19.60;44.60;;;;;;5002745;28;19940;-54
2023/05/01 00:13:38;;;;;;;;;;;19.50;44.50;;;;;;5002539;28;19918;-54
2023/05/01 00:16:10;;;;;;;;;;;19.60;44.60;;;;;;5003668;28;19936;-54
2023/05/01 00:18:36;;;;;;;;;;;19.50;44.40;;;;;;4998705;28;19913;-53
2023/05/01 00:21:02;;;;;;;;;;;19.50;44.40;;;;;;5002376;28;19976;-54
2023/05/01 00:23:27;;;;;;;;;;;19.60;44.70;;;;;;5003528;28;19913;-53
2023/05/01 00:25:53;;;;;;;;;;;19.50;44.50;;;;;;5002777;28;20000;-54
2023/05/01 00:28:18;;;;;;;;;;;19.50;44.50;;;;;;5003915;28;19972;-53
2023/05/01 00:30:44;;;;;;;;;;;19.50;44.40;;;;;;4998146;28;19921;-54
2023/05/01 00:33:10;;;;;;;;;;;19.50;44.50;;;;;;5006185;28;20270;-54
2023/05/01 00:35:35;;;;;;;;;;;19.50;44.40;;;;;;5001253;28;19976;-53
2023/05/01 00:38:01;;;;;;;;;;;19.50;44.60;;;;;;5004204;28;19917;-53
2023/05/01 00:40:26;;;;;;;;;;;19.50;44.50;;;;;;5003329;28;19918;-54
2023/05/01 00:42:52;;;;;;;;;;;19.50;44.60;;;;;;5002322;28;19921;-54
2023/05/01 00:45:17;;;;;;;;;;;19.40;44.50;;;;;;5000374;28;19917;-54
2023/05/01 00:47:43;;;;;;;;;;;19.50;44.50;;;;;;4999596;28;19925;-53
2023/05/01 00:50:09;;;;;;;;;;;19.50;44.60;;;;;;5006079;28;19925;-53
2023/05/01 00:52:34;;;;;;;;;;;19.50;44.60;;;;;;4996189;28;19967;-53
2023/05/01 00:55:00;;;;;;;;;;;19.50;44.40;;;;;;5004589;28;19914;-53
2023/05/01 00:57:25;;;;;;;;;;;19.50;44.70;;;;;;5001431;28;19921;-53
2023/05/01 00:59:51;;;;;;;;;;;19.40;44.40;;;;;;5004107;28;19918;-53
2023/05/01 01:02:16;;;;;;;;;;;19.40;44.80;;;;;;5004324;28;20370;-53
2023/05/01 01:04:43;;;;;;;;;;;19.40;44.60;;;;;;5002775;28;19921;-53
2023/05/01 01:07:16;;;;;;;;;;;19.40;44.60;;;;;;5004770;28;19918;-53
2023/05/01 01:09:45;;;;;;;;;;;19.40;44.50;;;;;;5001953;28;19920;-53
2023/05/01 01:12:17;;;;;;;;;;;19.50;46.10;;;;;;4999748;28;20016;-53
2023/05/01 01:14:48;;;;;;;;;;;19.50;46.10;;;;;;4999265;28;20036;-53
2023/05/01 01:17:20;;;;;;;;;;;19.50;45.80;;;;;;5003812;28;19917;-53
2023/05/01 01:19:50;;;;;;;;;;;19.60;45.80;;;;;;5002516;28;19914;-53
2023/05/01 01:22:17;;;;;;;;;;;19.70;45.40;;;;;;5002989;28;20385;-53
2023/05/01 01:25:05;;;;;;;;;;;19.90;44.80;;;;;;5003242;28;20319;-53
2023/05/01 01:27:51;;;;;;;;;;;20.10;44.50;;;;;;4999215;28;19914;-53
2023/05/01 01:30:19;;;;;;;;;;;20.40;44.20;;;;;;5003607;28;19922;-53
2023/05/01 01:32:47;;;;;;;;;;;20.60;43.70;;;;;;5003356;28;20367;-53
2023/05/01 01:35:17;;;;;;;;;;;20.70;43.70;;;;;;5001329;28;20412;-52
2023/05/01 01:37:46;;;;;;;;;;;20.80;43.50;;;;;;4998144;28;19918;-53
2023/05/01 01:40:15;;;;;;;;;;;20.80;43.30;;;;;;5003917;28;19918;-53
2023/05/01 01:42:42;;;;;;;;;;;20.80;43.30;;;;;;5001939;28;19963;-53
2023/05/01 01:45:18;;;;;;;;;;;20.70;43.30;;;;;;5004047;28;19944;-53
2023/05/01 01:47:43;;;;;;;;;;;20.70;43.50;;;;;;4995510;28;19914;-53
2023/05/01 01:50:09;;;;;;;;;;;20.60;43.40;;;;;;5001677;28;19978;-53
2023/05/01 01:52:35;;;;;;;;;;;20.50;43.30;;;;;;4997966;28;19920;-53
2023/05/01 01:55:07;;;;;;;;;;;20.40;43.40;;;;;;4997281;28;19920;-53
2023/05/01 01:57:33;;;;;;;;;;;20.30;43.40;;;;;;5000036;28;20401;-53
2023/05/01 01:59:59;;;;;;;;;;;20.30;43.30;;;;;;5002617;28;19918;-53
2023/05/01 02:02:25;;;;;;;;;;;20.20;43.40;;;;;;5032759;28;19932;-53
2023/05/01 02:04:51;;;;;;;;;;;20.20;43.40;;;;;;5003082;28;19918;-53
2023/05/01 02:07:17;;;;;;;;;;;20.10;43.60;;;;;;5027163;28;19918;-53
2023/05/01 02:09:43;;;;;;;;;;;20.10;44.00;;;;;;5000024;28;19936;-53
2023/05/01 02:12:08;;;;;;;;;;;20.00;43.90;;;;;;5000434;28;19921;-53
2023/05/01 02:14:34;;;;;;;;;;;20.00;43.80;;;;;;5031451;28;19997;-53
2023/05/01 02:17:00;;;;;;;;;;;20.00;44.00;;;;;;5003426;28;19913;-53
2023/05/01 02:19:25;;;;;;;;;;;19.90;44.30;;;;;;5001815;28;19913;-53
2023/05/01 02:21:52;;;;;;;;;;;19.90;43.80;;;;;;5000761;28;19945;-53
2023/05/01 02:24:17;;;;;;;;;;;20.00;44.00;;;;;;4995932;28;19938;-53
2023/05/01 02:26:45;;;;;;;;;;;20.00;44.10;;;;;;4999624;28;20349;-53
2023/05/01 02:29:10;;;;;;;;;;;20.00;43.40;;;;;;4998113;28;19918;-53
2023/05/01 02:31:36;;;;;;;;;;;20.10;43.10;;;;;;5015448;28;19922;-52
2023/05/01 02:34:01;;;;;;;;;;;20.10;43.20;;;;;;4998409;28;19925;-53
2023/05/01 02:36:27;;;;;;;;;;;20.30;43.80;;;;;;4999162;28;19968;-53
2023/05/01 02:38:53;;;;;;;;;;;20.40;43.10;;;;;;5002751;28;19913;-53
2023/05/01 02:41:20;;;;;;;;;;;20.40;43.00;;;;;;4998876;28;19925;-53
2023/05/01 02:43:45;;;;;;;;;;;20.50;43.00;;;;;;5001177;28;19948;-53
2023/05/01 02:46:11;;;;;;;;;;;20.40;42.80;;;;;;5032486;28;20351;-53
2023/05/01 02:48:37;;;;;;;;;;;20.40;43.10;;;;;;5004017;28;20256;-53
2023/05/01 02:51:03;;;;;;;;;;;20.30;42.80;;;;;;4996030;28;19914;-53
2023/05/01 02:53:28;;;;;;;;;;;20.30;43.00;;;;;;5001529;28;19924;-52
2023/05/01 02:55:54;;;;;;;;;;;20.20;43.00;;;;;;5001918;28;19918;-53
2023/05/01 02:58:19;;;;;;;;;;;20.20;43.10;;;;;;5034038;28;19925;-53
2023/05/01 03:00:46;;;;;;;;;;;20.10;43.20;;;;;;5033339;28;19918;-53
2023/05/01 03:03:11;;;;;;;;;;;20.00;42.90;;;;;;5031259;28;19956;-53
2023/05/01 03:05:37;;;;;;;;;;;19.90;43.00;;;;;;5002323;28;19948;-53
2023/05/01 03:08:03;;;;;;;;;;;19.90;43.30;;;;;;5014725;28;20012;-53
2023/05/01 03:10:28;;;;;;;;;;;19.90;43.80;;;;;;4997172;28;20391;-53
2023/05/01 03:12:54;;;;;;;;;;;19.90;43.80;;;;;;5001533;28;20377;-53
2023/05/01 03:15:19;;;;;;;;;;;19.80;43.60;;;;;;4999228;28;20294;-53
2023/05/01 03:17:45;;;;;;;;;;;19.80;43.70;;;;;;4999118;28;20338;-53
2023/05/01 03:20:11;;;;;;;;;;;19.80;43.50;;;;;;4997751;28;19914;-53
2023/05/01 03:22:36;;;;;;;;;;;19.80;43.40;;;;;;4998769;28;19972;-53
2023/05/01 03:25:03;;;;;;;;;;;19.70;43.40;;;;;;5000747;28;19929;-53
2023/05/01 03:27:29;;;;;;;;;;;19.70;43.50;;;;;;5001379;28;19920;-53
2023/05/01 03:29:55;;;;;;;;;;;19.70;43.30;;;;;;5000042;28;19964;-53
2023/05/01 03:32:21;;;;;;;;;;;19.70;43.40;;;;;;5001852;28;19921;-53
2023/05/01 03:34:46;;;;;;;;;;;19.80;43.50;;;;;;4999974;28;20330;-53
2023/05/01 03:37:12;;;;;;;;;;;19.80;43.30;;;;;;4997554;28;19968;-53
2023/05/01 03:39:37;;;;;;;;;;;19.90;43.20;;;;;;4997377;28;19964;-53
2023/05/01 03:42:04;;;;;;;;;;;19.90;43.20;;;;;;5000232;28;19921;-52
2023/05/01 03:44:29;;;;;;;;;;;20.00;43.30;;;;;;5000131;28;20052;-53
2023/05/01 03:46:54;;;;;;;;;;;20.00;43.00;;;;;;4998145;28;20401;-53
2023/05/01 03:49:21;;;;;;;;;;;20.10;43.00;;;;;;5000947;28;19914;-53
2023/05/01 03:51:46;;;;;;;;;;;20.10;42.80;;;;;;4998537;28;19936;-53
2023/05/01 03:54:11;;;;;;;;;;;20.10;43.10;;;;;;4998416;28;20783;-53
2023/05/01 03:56:37;;;;;;;;;;;20.10;42.80;;;;;;4996788;28;20016;-53
2023/05/01 03:59:02;;;;;;;;;;;20.10;42.90;;;;;;4999426;28;19914;-53
2023/05/01 04:01:28;;;;;;;;;;;20.10;42.80;;;;;;5031285;28;19921;-53
2023/05/01 04:03:54;;;;;;;;;;;20.00;42.80;;;;;;5002340;28;20366;-53
2023/05/01 04:06:19;;;;;;;;;;;20.00;42.90;;;;;;5001065;28;19913;-52
2023/05/01 04:08:45;;;;;;;;;;;19.90;42.80;;;;;;4990641;28;19913;-53
2023/05/01 04:11:10;;;;;;;;;;;19.90;42.90;;;;;;5000991;28;19921;-53
2023/05/01 04:13:36;;;;;;;;;;;19.90;42.90;;;;;;5002571;28;20333;-53
2023/05/01 04:16:01;;;;;;;;;;;19.80;42.80;;;;;;5001959;28;19925;-53
2023/05/01 04:18:27;;;;;;;;;;;19.80;42.90;;;;;;4996996;28;19968;-53
2023/05/01 04:20:52;;;;;;;;;;;19.80;43.00;;;;;;4995101;28;19953;-53
2023/05/01 04:23:19;;;;;;;;;;;19.70;43.00;;;;;;4999017;28;20027;-53
2023/05/01 04:25:45;;;;;;;;;;;19.70;42.90;;;;;;4999776;28;20013;-53
2023/05/01 04:28:11;;;;;;;;;;;19.70;43.10;;;;;;4999976;28;20415;-52
2023/05/01 04:30:36;;;;;;;;;;;19.70;42.90;;;;;;4998790;28;19913;-53
2023/05/01 04:33:05;;;;;;;;;;;19.70;43.10;;;;;;4993901;28;19924;-53
2023/05/01 04:35:30;;;;;;;;;;;19.70;42.90;;;;;;4992548;28;19988;-53
2023/05/01 04:37:55;;;;;;;;;;;19.80;42.90;;;;;;4998236;28;19957;-53
2023/05/01 04:40:21;;;;;;;;;;;19.70;42.60;;;;;;4998538;28;19922;-54
2023/05/01 04:42:46;;;;;;;;;;;19.70;42.70;;;;;;4992518;28;20013;-54
2023/05/01 04:45:12;;;;;;;;;;;19.80;42.70;;;;;;5001726;28;20499;-53
2023/05/01 04:47:37;;;;;;;;;;;19.80;42.70;;;;;;5000553;28;20353;-54
2023/05/01 04:50:03;;;;;;;;;;;19.80;42.60;;;;;;5001006;28;19922;-54
2023/05/01 04:52:28;;;;;;;;;;;19.80;42.40;;;;;;5003352;28;19949;-54
2023/05/01 04:54:54;;;;;;;;;;;19.80;42.60;;;;;;5000504;28;19921;-53
2023/05/01 04:57:19;;;;;;;;;;;19.80;42.60;;;;;;5002158;28;20084;-54
2023/05/01 04:59:46;;;;;;;;;;;19.80;42.50;;;;;;5002342;28;19914;-54
2023/05/01 05:02:12;;;;;;;;;;;19.80;42.50;;;;;;5003206;28;19925;-53
2023/05/01 05:04:37;;;;;;;;;;;19.80;42.50;;;;;;5004934;28;20386;-54
2023/05/01 05:07:02;;;;;;;;;;;19.80;42.40;;;;;;5006815;28;19917;-54
2023/05/01 05:09:28;;;;;;;;;;;19.80;42.40;;;;;;4998633;28;19924;-53
2023/05/01 05:11:53;;;;;;;;;;;19.70;42.40;;;;;;4996022;28;19931;-54
2023/05/01 05:14:19;;;;;;;;;;;19.70;42.60;;;;;;5004997;28;19918;-54
2023/05/01 05:16:44;;;;;;;;;;;19.80;42.70;;;;;;4999282;28;19921;-55
2023/05/01 05:19:10;;;;;;;;;;;19.70;42.30;;;;;;5003313;28;19941;-54
2023/05/01 05:21:36;;;;;;;;;;;19.70;42.30;;;;;;5004906;28;19928;-53
2023/05/01 05:24:01;;;;;;;;;;;19.70;42.40;;;;;;5004708;28;19909;-53
2023/05/01 05:26:27;;;;;;;;;;;19.60;42.70;;;;;;5001573;28;20323;-53
2023/05/01 05:28:52;;;;;;;;;;;19.60;42.40;;;;;;5001287;28;19933;-54
2023/05/01 05:31:18;;;;;;;;;;;19.60;42.50;;;;;;5002186;28;19914;-54
2023/05/01 05:33:43;;;;;;;;;;;19.60;42.70;;;;;;5002685;28;19940;-53
2023/05/01 05:36:09;;;;;;;;;;;19.60;42.40;;;;;;5005471;28;19918;-54
2023/05/01 05:38:34;;;;;;;;;;;19.60;42.50;;;;;;5002417;28;19921;-55
2023/05/01 05:41:00;;;;;;;;;;;19.60;42.50;;;;;;5031892;28;19916;-54
2023/05/01 05:43:26;;;;;;;;;;;19.60;42.60;;;;;;5001442;28;19917;-54
2023/05/01 05:45:55;;;;;;;;;;;19.60;42.60;;;;;;5000947;28;19914;-54
2023/05/01 05:48:20;;;;;;;;;;;19.60;42.50;;;;;;5004394;28;19914;-54
2023/05/01 05:50:46;;;;;;;;;;;19.60;42.50;;;;;;5035357;28;19914;-54
2023/05/01 05:53:12;;;;;;;;;;;19.60;42.40;;;;;;5003252;28;20169;-54
2023/05/01 05:55:37;;;;;;;;;;;19.60;42.40;;;;;;4994113;28;19935;-54
2023/05/01 05:58:03;;;;;;;;;;;19.70;42.60;;;;;;4999079;28;20370;-54
2023/05/01 06:00:28;;;;;;;;;;;19.70;42.40;;;;;;4998760;28;19918;-53
2023/05/01 06:02:54;;;;;;;;;;;19.70;42.50;;;;;;5003393;28;19928;-54
2023/05/01 06:05:19;;;;;;;;;;;19.70;42.60;;;;;;5002799;28;19910;-54
2023/05/01 06:07:45;;;;;;;;;;;19.70;42.50;;;;;;5000531;28;19982;-54
2023/05/01 06:10:10;;;;;;;;;;;19.70;42.30;;;;;;5002177;28;19922;-54
2023/05/01 06:12:37;;;;;;;;;;;19.70;42.50;;;;;;5000702;28;20012;-54
2023/05/01 06:15:03;;;;;;;;;;;19.60;42.30;;;;;;5002091;28;19944;-53
2023/05/01 06:17:28;;;;;;;;;;;19.60;42.50;;;;;;4996495;28;19937;-54
2023/05/01 06:19:54;;;;;;;;;;;19.60;42.30;;;;;;5001401;28;19914;-53
2023/05/01 06:22:20;;;;;;;;;;;19.60;42.40;;;;;;5000609;28;20039;-53
2023/05/01 06:24:45;;;;;;;;;;;19.60;42.30;;;;;;5000868;28;19921;-53
2023/05/01 06:27:11;;;;;;;;;;;19.60;42.30;;;;;;4999071;28;20013;-53
2023/05/01 06:29:36;;;;;;;;;;;19.50;42.30;;;;;;5002851;28;19913;-54
2023/05/01 06:32:02;;;;;;;;;;;19.50;42.40;;;;;;5003032;28;20385;-54
2023/05/01 06:34:28;;;;;;;;;;;19.60;42.30;;;;;;5000783;28;19914;-53
2023/05/01 06:36:53;;;;;;;;;;;19.60;42.30;;;;;;5001942;28;19917;-53
2023/05/01 06:39:19;;;;;;;;;;;19.50;42.40;;;;;;5001033;28;19975;-54
2023/05/01 06:41:45;;;;;;;;;;;19.50;42.10;;;;;;4998863;28;19929;-53
2023/05/01 06:44:11;;;;;;;;;;;19.50;42.20;;;;;;4990162;28;19914;-54
2023/05/01 06:46:36;;;;;;;;;;;19.50;42.10;;;;;;5002528;28;19957;-53
2023/05/01 06:49:02;;;;;;;;;;;19.50;42.40;;;;;;4999122;28;19918;-54
2023/05/01 06:51:29;;;;;;;;;;;19.50;42.20;;;;;;4997667;28;19914;-54
2023/05/01 06:53:54;;;;;;;;;;;19.50;42.30;;;;;;5000791;28;20025;-54
2023/05/01 06:56:20;;;;;;;;;;;19.50;42.10;;;;;;4997562;28;20384;-54
2023/05/01 06:58:46;;;;;;;;;;;19.50;42.10;;;;;;5002724;28;19918;-54
2023/05/01 07:01:11;;;;;;;;;;;19.50;42.20;;;;;;4996848;28;20005;-53
2023/05/01 07:03:37;;;;;;;;;;;19.50;42.20;;;;;;5000108;28;19970;-54
2023/05/01 07:06:02;;;;;;;;;;;19.50;42.30;;;;;;5001174;28;19917;-54
2023/05/01 07:08:28;;;;;;;;;;;19.60;42.20;;;;;;5002343;28;20358;-54
2023/05/01 07:10:54;;;;;;;;;;;19.60;42.20;;;;;;4999266;28;19924;-54
2023/05/01 07:13:19;;;;;;;;;;;19.60;42.00;;;;;;4999204;28;20337;-54
2023/05/01 07:15:45;;;;;;;;;;;19.60;42.10;;;;;;5002139;28;19914;-54
2023/05/01 07:18:11;;;;;;;;;;;19.60;42.10;;;;;;4996338;28;20343;-54
2023/05/01 07:20:36;;;;;;;;;;;19.60;42.20;;;;;;4999095;28;20008;-53
2023/05/01 07:23:02;;;;;;;;;;;19.60;42.00;;;;;;4999681;28;20016;-54
2023/05/01 07:25:28;;;;;;;;;;;19.60;42.00;;;;;;5000244;28;19913;-54
2023/05/01 07:27:54;;;;;;;;;;;19.60;42.20;;;;;;5002747;28;19918;-54
2023/05/01 07:30:19;;;;;;;;;;;19.60;42.20;;;;;;4998107;28;19944;-54
2023/05/01 07:32:45;;;;;;;;;;;19.60;42.20;;;;;;4999472;28;20373;-53
2023/05/01 07:35:10;;;;;;;;;;;19.60;42.30;;;;;;4994658;28;19914;-54
2023/05/01 07:37:36;;;;;;;;;;;19.60;42.20;;;;;;5000650;28;20238;-54
2023/05/01 07:40:02;;;;;;;;;;;19.60;42.00;;;;;;5032706;28;19914;-53
2023/05/01 07:42:27;;;;;;;;;;;19.60;42.00;;;;;;4998637;28;19921;-54
2023/05/01 07:44:53;;;;;;;;;;;19.60;41.90;;;;;;4999676;28;19921;-53
2023/05/01 07:47:18;;;;;;;;;;;19.60;41.80;;;;;;4999841;28;20007;-54
2023/05/01 07:49:44;;;;;;;;;;;19.50;41.80;;;;;;4991745;28;19917;-53
2023/05/01 07:52:09;;;;;;;;;;;19.50;42.00;;;;;;4998677;28;19930;-53
2023/05/01 07:54:35;;;;;;;;;;;19.50;41.80;;;;;;5027496;28;19913;-53
2023/05/01 07:57:01;;;;;;;;;;;19.50;41.90;;;;;;4997012;28;20293;-53
2023/05/01 07:59:26;;;;;;;;;;;19.60;41.90;;;;;;5000593;28;19953;-55
2023/05/01 08:01:52;;;;;;;;;;;19.60;42.30;;;;;;4998775;28;19917;-54
2023/05/01 08:04:17;;;;;;;;;;;19.50;41.90;;;;;;4995334;28;19914;-54
2023/05/01 08:06:43;;;;;;;;;;;19.50;42.20;;;;;;4989065;28;20412;-53
2023/05/01 08:09:08;;;;;;;;;;;19.50;41.90;;;;;;4994819;28;19967;-54
2023/05/01 08:11:34;;;;;;;;;;;19.60;42.30;;;;;;4999236;28;19948;-54
2023/05/01 08:13:59;;;;;;;;;;;19.60;42.30;;;;;;4993053;28;19914;-54
2023/05/01 08:16:27;;;;;;;;;;;19.50;42.20;;;;;;4994897;28;20206;-53
2023/05/01 08:18:52;;;;;;;;;;;19.60;42.20;;;;;;4998305;28;19921;-54
2023/05/01 08:21:17;;;;;;;;;;;19.50;42.30;;;;;;4994796;28;19914;-53
2023/05/01 08:23:43;;;;;;;;;;;19.60;42.00;;;;;;5003635;28;19917;-54
2023/05/01 08:26:08;;;;;;;;;;;19.60;42.20;;;;;;4996840;28;19949;-54
2023/05/01 08:28:34;;;;;;;;;;;19.60;42.00;;;;;;5001896;28;19937;-54
2023/05/01 08:30:59;;;;;;;;;;;19.60;42.20;;;;;;5003279;28;19920;-54
2023/05/01 08:33:25;;;;;;;;;;;19.60;41.90;;;;;;4998709;28;20294;-54
2023/05/01 08:35:51;;;;;;;;;;;19.70;42.60;;;;;;5001580;28;20301;-53
2023/05/01 08:38:17;;;;;;;;;;;19.70;42.50;;;;;;4998979;28;20056;-54
2023/05/01 08:40:43;;;;;;;;;;;19.70;42.20;;;;;;5005042;28;20016;-54
2023/05/01 08:43:08;;;;;;;;;;;19.70;42.20;;;;;;5012059;28;19918;-54
2023/05/01 08:45:37;;;;;;;;;;;19.70;42.20;;;;;;5001930;28;19975;-54
2023/05/01 08:48:05;;;;;;;;;;;19.70;42.30;;;;;;4993519;28;19925;-54
2023/05/01 08:50:35;;;;;;;;;;;19.70;42.20;;;;;;4994311;28;19922;-54
2023/05/01 08:53:02;;;;;;;;;;;19.70;42.20;;;;;;4997392;28;19918;-54
2023/05/01 08:55:27;;;;;;;;;;;19.70;42.30;;;;;;5000965;28;19976;-53
2023/05/01 08:57:53;;;;;;;;;;;19.70;42.30;;;;;;5029312;28;19959;-54
2023/05/01 09:00:18;;;;;;;;;;;19.70;42.40;;;;;;4991781;28;19971;-53
2023/05/01 09:02:45;;;;;;;;;;;19.70;42.60;;;;;;5000355;28;19980;-54
2023/05/01 09:05:11;;;;;;;;;;;19.80;42.50;;;;;;5002526;28;20004;-53
2023/05/01 09:07:36;;;;;;;;;;;19.80;42.70;;;;;;5001454;28;20032;-54
2023/05/01 09:10:02;;;;;;;;;;;19.80;43.20;;;;;;4998743;28;19928;-53
2023/05/01 09:12:27;;;;;;;;;;;19.80;43.40;;;;;;5023004;28;19929;-54
2023/05/01 09:14:53;;;;;;;;;;;19.80;43.20;;;;;;5002734;28;19920;-53
2023/05/01 09:17:19;;;;;;;;;;;19.80;43.40;;;;;;4996151;28;19924;-54
2023/05/01 09:19:45;;;;;;;;;;;19.90;43.30;;;;;;5000893;28;19925;-54
2023/05/01 09:22:11;;;;;;;;;;;19.90;43.30;;;;;;4998588;28;19996;-53
2023/05/01 09:24:36;;;;;;;;;;;19.90;43.50;;;;;;4997422;28;19921;-54
2023/05/01 09:27:02;;;;;;;;;;;19.90;43.50;;;;;;5002249;28;19925;-54
2023/05/01 09:29:36;;;;;;;;;;;19.90;43.60;;;;;;5003780;28;19917;-54
2023/05/01 09:32:11;;;;;;;;;;;20.00;43.50;;;;;;5001174;28;20389;-53
2023/05/01 09:34:37;;;;;;;;;;;20.10;43.40;;;;;;5000212;28;19920;-53
2023/05/01 09:37:03;;;;;;;;;;;20.20;43.20;;;;;;4999061;28;19918;-54
2023/05/01 09:39:28;;;;;;;;;;;20.30;42.80;;;;;;5004934;28;19924;-53
2023/05/01 09:41:54;;;;;;;;;;;20.40;42.70;;;;;;5000383;28;19929;-53
2023/05/01 09:44:19;;;;;;;;;;;20.50;42.50;;;;;;5004717;28;20429;-53
2023/05/01 09:46:45;;;;;;;;;;;20.60;41.90;;;;;;5003449;28;19913;-54
2023/05/01 09:49:10;;;;;;;;;;;20.70;42.00;;;;;;5002065;28;19914;-54
2023/05/01 09:51:36;;;;;;;;;;;20.70;42.10;;;;;;5002175;28;19925;-54
2023/05/01 09:54:03;;;;;;;;;;;20.70;42.00;;;;;;5000498;28;19922;-53
2023/05/01 09:56:30;;;;;;;;;;;20.70;42.10;;;;;;4990344;28;20013;-53
2023/05/01 09:58:56;;;;;;;;;;;20.70;42.90;;;;;;4999906;28;19920;-54
2023/05/01 10:01:40;;;;;;;;;;;20.70;42.20;;;;;;4996987;28;19914;-53
2023/05/01 10:04:06;;;;;;;;;;;20.60;42.20;;;;;;5014996;28;19914;-54
2023/05/01 10:06:31;;;;;;;;;;;20.60;42.20;;;;;;4996064;28;19921;-54
2023/05/01 10:08:56;;;;;;;;;;;20.70;42.20;;;;;;4991307;28;20667;-53
2023/05/01 10:11:22;;;;;;;;;;;20.70;42.20;;;;;;4997070;28;19914;-53
2023/05/01 10:14:07;;;;;;;;;;;20.70;42.20;;;;;;4999284;28;19913;-53
2023/05/01 10:16:33;;;;;;;;;;;20.70;42.20;;;;;;4999579;28;19927;-53
2023/05/01 10:18:58;;;;;;;;;;;20.70;41.90;;;;;;5001357;28;20360;-54
2023/05/01 10:21:24;;;;;;;;;;;20.70;41.90;;;;;;4998715;28;19920;-54
2023/05/01 10:23:50;;;;;;;;;;;20.70;41.80;;;;;;5002690;28;20012;-53
2023/05/01 10:26:16;;;;;;;;;;;20.70;42.50;;;;;;4997243;28;20294;-53
2023/05/01 10:28:43;;;;;;;;;;;20.70;42.10;;;;;;5001388;28;19917;-53
2023/05/01 10:31:09;;;;;;;;;;;20.70;42.20;;;;;;4996278;28;19917;-54
2023/05/01 10:33:34;;;;;;;;;;;20.70;41.90;;;;;;4990083;28;20394;-54
2023/05/01 10:36:00;;;;;;;;;;;20.80;42.00;;;;;;4992573;28;19962;-54
2023/05/01 10:38:27;;;;;;;;;;;20.80;42.00;;;;;;5032542;28;19910;-53
2023/05/01 10:40:53;;;;;;;;;;;20.90;42.10;;;;;;5003737;28;19968;-53
2023/05/01 10:43:28;;;;;;;;;;;20.90;42.10;;;;;;5001587;28;19965;-54
2023/05/01 10:45:54;;;;;;;;;;;20.90;42.20;;;;;;5001597;28;19939;-53
2023/05/01 10:48:39;;;;;;;;;;;20.90;42.30;;;;;;5033318;28;19918;-54
2023/05/01 10:51:14;;;;;;;;;;;20.90;42.20;;;;;;4999061;28;19918;-53
2023/05/01 10:53:40;;;;;;;;;;;20.90;42.20;;;;;;5000748;28;19910;-53
2023/05/01 10:56:35;;;;;;;;;;;21.00;42.10;;;;;;4997378;28;20044;-53
2023/05/01 10:59:03;;;;;;;;;;;20.90;42.00;;;;;;5006463;28;19920;-53
2023/05/01 11:01:30;;;;;;;;;;;21.00;42.20;;;;;;5023511;28;19963;-54
2023/05/01 11:03:56;;;;;;;;;;;21.00;42.10;;;;;;4997336;28;19914;-53
2023/05/01 11:06:22;;;;;;;;;;;21.00;42.10;;;;;;4997623;28;19916;-54
2023/05/01 11:08:48;;;;;;;;;;;21.10;42.20;;;;;;4995923;28;19925;-54
2023/05/01 11:11:22;;;;;;;;;;;21.10;42.20;;;;;;4998510;28;19913;-53
2023/05/01 11:13:57;;;;;;;;;;;21.10;42.40;;;;;;4994458;28;19917;-54
2023/05/01 11:16:38;;;;;;;;;;;21.10;42.50;;;;;;4998766;28;19918;-54
2023/05/01 11:19:04;;;;;;;;;;;21.10;42.50;;;;;;5000325;28;19925;-53
2023/05/01 11:21:32;;;;;;;;;;;21.10;42.40;;;;;;4997992;28;19922;-53
2023/05/01 11:23:58;;;;;;;;;;;21.10;42.30;;;;;;5000118;28;19917;-53
2023/05/01 11:26:24;;;;;;;;;;;21.10;42.20;;;;;;4998592;28;19940;-55
2023/05/01 11:28:49;;;;;;;;;;;21.20;42.10;;;;;;4975463;28;19921;-54
2023/05/01 11:31:17;;;;;;;;;;;21.20;42.20;;;;;;4982334;28;20347;-53
2023/05/01 11:33:43;;;;;;;;;;;21.20;42.10;;;;;;4973932;28;20397;-53
2023/05/01 11:36:09;;;;;;;;;;;21.20;42.10;;;;;;4999261;28;19917;-54
2023/05/01 11:38:34;;;;;;;;;;;21.20;42.20;;;;;;4997974;28;19921;-52
2023/05/01 11:41:00;;;;;;;;;;;21.30;42.20;;;;;;4994327;28;20322;-53
2023/05/01 11:43:26;;;;;;;;;;;21.30;42.10;;;;;;4997469;28;19918;-54
2023/05/01 11:45:53;;;;;;;;;;;21.40;41.90;;;;;;4999055;28;20462;-53
2023/05/01 11:48:19;;;;;;;;;;;21.40;42.90;;;;;;5001582;28;20056;-53
2023/05/01 11:50:45;;;;;;;;;;;21.40;42.00;;;;;;5029643;28;19921;-54
2023/05/01 11:53:11;;;;;;;;;;;21.30;42.00;;;;;;5001081;28;20335;-53
2023/05/01 11:55:37;;;;;;;;;;;21.40;42.10;;;;;;5001498;28;20418;-54
2023/05/01 11:58:03;;;;;;;;;;;21.40;42.10;;;;;;5034096;28;19960;-53
2023/05/01 12:00:35;;;;;;;;;;;21.40;42.40;;;;;;4998628;28;20236;-54
2023/05/01 12:03:01;;;;;;;;;;;21.40;42.40;;;;;;4999260;28;19924;-54
2023/05/01 12:05:27;;;;;;;;;;;21.30;42.20;;;;;;5003714;28;19917;-53
2023/05/01 12:08:06;;;;;;;;;;;21.30;42.40;;;;;;4999197;28;19918;-54
2023/05/01 12:10:31;;;;;;;;;;;21.30;42.40;;;;;;5002556;28;19914;-54
2023/05/01 12:12:57;;;;;;;;;;;21.30;42.30;;;;;;5002506;28;19921;-54
2023/05/01 12:15:22;;;;;;;;;;;21.30;42.50;;;;;;5000318;28;20052;-54
2023/05/01 12:17:49;;;;;;;;;;;21.30;42.60;;;;;;4998195;28;19979;-53
2023/05/01 12:20:14;;;;;;;;;;;21.30;40.10;;;;;;5000458;28;19917;-55
2023/05/01 12:22:49;;;;;;;;;;;21.40;40.30;;;;;;5000979;28;20388;-53
2023/05/01 12:25:15;;;;;;;;;;;21.50;40.60;;;;;;5000063;28;20394;-54
2023/05/01 12:27:44;;;;;;;;;;;21.40;39.80;;;;;;4995932;28;20030;-53
2023/05/01 12:30:10;;;;;;;;;;;21.40;40.70;;;;;;5002886;28;19913;-54
2023/05/01 12:32:35;;;;;;;;;;;21.30;41.20;;;;;;5000422;28;20263;-53
2023/05/01 12:35:10;;;;;;;;;;;21.30;41.60;;;;;;5004981;28;19921;-54
2023/05/01 12:37:36;;;;;;;;;;;21.30;41.60;;;;;;5015575;28;19929;-53
2023/05/01 12:40:02;;;;;;;;;;;21.20;41.20;;;;;;5003176;28;19913;-53
2023/05/01 12:42:28;;;;;;;;;;;21.20;41.30;;;;;;5000803;28;20244;-53
2023/05/01 12:44:57;;;;;;;;;;;21.30;40.70;;;;;;5004213;28;19918;-53
2023/05/01 12:47:22;;;;;;;;;;;21.30;39.80;;;;;;5000002;28;19914;-54
2023/05/01 12:49:48;;;;;;;;;;;21.30;39.10;;;;;;5005995;28;19918;-53
2023/05/01 12:52:13;;;;;;;;;;;21.40;40.50;;;;;;5001731;28;19921;-53
2023/05/01 12:54:42;;;;;;;;;;;21.30;39.50;;;;;;4999993;28;19921;-53
2023/05/01 12:57:09;;;;;;;;;;;21.30;40.10;;;;;;5002086;28;19924;-53
2023/05/01 12:59:34;;;;;;;;;;;21.30;42.20;;;;;;5005143;28;19917;-54
2023/05/01 13:02:03;;;;;;;;;;;21.30;40.70;;;;;;5001452;28;19964;-52
2023/05/01 13:04:29;;;;;;;;;;;21.30;40.50;;;;;;5004736;28;20473;-53
2023/05/01 13:06:55;;;;;;;;;;;21.30;39.10;;;;;;5001191;28;20005;-53
2023/05/01 13:09:21;;;;;;;;;;;21.30;40.20;;;;;;5003022;28;19924;-54
2023/05/01 13:11:59;;;;;;;;;;;21.30;39.10;;;;;;5002754;28;19930;-53
2023/05/01 13:14:24;;;;;;;;;;;21.30;39.90;;;;;;5001951;28;20288;-53
2023/05/01 13:16:51;;;;;;;;;;;21.20;40.70;;;;;;5004897;28;19921;-53
2023/05/01 13:19:27;;;;;;;;;;;21.20;42.10;;;;;;5002507;28;19917;-54
2023/05/01 13:21:53;;;;;;;;;;;21.10;42.30;;;;;;5001534;28;19917;-54
2023/05/01 13:24:18;;;;;;;;;;;21.10;42.50;;;;;;4997203;28;21884;-53
2023/05/01 13:26:44;;;;;;;;;;;21.10;41.70;;;;;;4995063;28;19917;-53
2023/05/01 13:29:13;;;;;;;;;;;21.10;40.70;;;;;;5002362;28;19936;-53
2023/05/01 13:31:39;;;;;;;;;;;21.10;42.00;;;;;;4985704;28;19967;-53
2023/05/01 13:34:05;;;;;;;;;;;21.10;41.50;;;;;;5001654;28;19933;-53
2023/05/01 13:36:32;;;;;;;;;;;21.10;42.40;;;;;;5000488;28;19914;-53
2023/05/01 13:38:58;;;;;;;;;;;21.10;43.20;;;;;;5001122;28;19914;-53
2023/05/01 13:41:27;;;;;;;;;;;21.00;41.90;;;;;;5002086;28;19918;-54
2023/05/01 13:43:53;;;;;;;;;;;21.10;41.40;;;;;;5002747;28;19914;-56
2023/05/01 13:46:20;;;;;;;;;;;21.00;41.80;;;;;;4998240;28;19979;-54
2023/05/01 13:48:46;;;;;;;;;;;20.90;42.80;;;;;;5001442;28;19936;-54
2023/05/01 13:51:12;;;;;;;;;;;20.90;42.50;;;;;;4999305;28;19917;-53
2023/05/01 13:53:40;;;;;;;;;;;20.90;42.60;;;;;;5004265;28;19913;-53
2023/05/01 13:56:07;;;;;;;;;;;20.90;42.70;;;;;;5000672;28;19921;-54
2023/05/01 13:58:33;;;;;;;;;;;20.90;42.90;;;;;;4995815;28;20042;-53
2023/05/01 14:00:58;;;;;;;;;;;20.90;42.80;;;;;;5002732;28;20043;-53
2023/05/01 14:03:23;;;;;;;;;;;20.90;42.90;;;;;;5001610;28;19918;-53
2023/05/01 14:05:49;;;;;;;;;;;20.90;42.70;;;;;;5002502;28;19909;-53
2023/05/01 14:08:14;;;;;;;;;;;20.90;42.50;;;;;;4992358;28;19959;-53
2023/05/01 14:10:40;;;;;;;;;;;20.90;42.50;;;;;;5000390;28;19921;-53
2023/05/01 14:13:05;;;;;;;;;;;20.90;42.60;;;;;;5001541;28;19936;-53